createdAt,value
2018-03-20T00:00:02.868Z,45.80
2018-03-20T00:01:46.105Z,46.00
2018-03-20T00:03:29.995Z,46.90
2018-03-20T00:05:13.240Z,46.90
2018-03-20T00:06:57.177Z,47.60
2018-03-20T00:08:40.387Z,47.50
2018-03-20T00:10:23.657Z,47.80
2018-03-20T00:12:06.833Z,47.80
2018-03-20T00:13:50.753Z,47.80
2018-03-20T00:15:33.875Z,47.70
2018-03-20T00:17:17.028Z,47.70
2018-03-20T00:19:00.244Z,47.70
2018-03-20T00:20:43.377Z,47.90
2018-03-20T00:22:26.549Z,48.20
2018-03-20T00:24:09.687Z,48.60
2018-03-20T00:25:53.616Z,49.20
2018-03-20T00:27:37.535Z,49.60
2018-03-20T00:29:20.762Z,49.50
2018-03-20T00:31:04.693Z,49.30
2018-03-20T00:32:47.850Z,49.60
2018-03-20T00:34:30.989Z,49.90
2018-03-20T00:36:14.121Z,49.50
2018-03-20T00:37:57.325Z,49.60
2018-03-20T00:39:40.470Z,49.70
2018-03-20T00:41:23.602Z,49.80
2018-03-20T00:43:07.531Z,49.90
2018-03-20T00:44:50.684Z,49.90
2018-03-20T00:46:33.834Z,49.90
2018-03-20T00:48:17.079Z,49.90
2018-03-20T00:50:00.310Z,50.00
2018-03-20T00:51:44.228Z,49.70
2018-03-20T00:53:27.351Z,49.70
2018-03-20T00:55:10.474Z,49.70
2018-03-20T00:56:54.515Z,50.10
2018-03-20T00:58:38.403Z,49.90
2018-03-20T01:00:21.552Z,49.80
2018-03-20T01:02:04.796Z,50.10
2018-03-20T01:03:48.706Z,50.40
2018-03-20T01:05:31.844Z,50.40
2018-03-20T01:07:15.850Z,50.70
2018-03-20T01:08:59.009Z,50.60
2018-03-20T01:10:42.212Z,50.90
2018-03-20T01:12:26.129Z,51.20
2018-03-20T01:14:09.374Z,51.20
2018-03-20T01:15:53.267Z,51.60
2018-03-20T01:17:36.415Z,51.60
2018-03-20T01:19:20.333Z,51.70
2018-03-20T01:21:03.463Z,51.70
2018-03-20T01:22:46.598Z,51.80
2018-03-20T01:24:30.517Z,51.90
2018-03-20T01:26:14.441Z,52.10
2018-03-20T01:27:58.385Z,52.40
2018-03-20T01:29:41.608Z,52.20
2018-03-20T01:31:25.513Z,52.20
2018-03-20T01:33:08.663Z,52.20
2018-03-20T01:34:52.557Z,52.20
2018-03-20T01:36:35.806Z,52.20
2018-03-20T01:38:18.952Z,52.20
2018-03-20T01:40:02.136Z,52.20
2018-03-20T01:41:45.266Z,52.20
2018-03-20T01:43:29.220Z,52.10
2018-03-20T01:45:12.355Z,52.10
2018-03-20T01:46:55.530Z,52.20
2018-03-20T01:48:39.467Z,52.70
2018-03-20T01:50:23.392Z,52.80
2018-03-20T01:52:06.528Z,52.10
2018-03-20T01:53:50.428Z,52.50
2018-03-20T01:55:33.551Z,52.50
2018-03-20T01:57:17.500Z,52.60
2018-03-20T01:59:00.717Z,52.50
2018-03-20T02:00:43.847Z,52.60
2018-03-20T02:02:28.072Z,52.80
2018-03-20T02:04:11.289Z,52.80
2018-03-20T02:05:54.410Z,52.90
2018-03-20T02:07:37.860Z,52.90
2018-03-20T02:09:20.995Z,53.00
2018-03-20T02:11:04.279Z,53.00
2018-03-20T02:12:48.227Z,53.00
2018-03-20T02:14:32.144Z,53.00
2018-03-20T02:16:15.345Z,52.90
2018-03-20T02:17:58.473Z,52.90
2018-03-20T02:19:42.377Z,53.00
2018-03-20T02:21:25.496Z,53.00
2018-03-20T02:23:08.669Z,53.00
2018-03-20T02:24:52.590Z,53.70
2018-03-20T02:26:36.491Z,53.10
2018-03-20T02:28:19.639Z,53.10
2018-03-20T02:30:03.530Z,53.00
2018-03-20T02:31:47.101Z,53.00
2018-03-20T02:33:30.422Z,52.90
2018-03-20T02:35:13.579Z,52.80
2018-03-20T02:36:56.698Z,52.70
2018-03-20T02:38:40.142Z,52.60
2018-03-20T02:40:23.266Z,52.50
2018-03-20T02:42:06.396Z,52.40
2018-03-20T02:43:49.621Z,52.30
2018-03-20T02:45:32.830Z,52.20
2018-03-20T02:47:17.465Z,52.10
2018-03-20T02:49:00.628Z,52.00
2018-03-20T02:50:44.626Z,52.00
2018-03-20T02:52:27.936Z,51.90
2018-03-20T02:54:11.496Z,51.80
2018-03-20T02:55:55.417Z,51.80
2018-03-20T02:57:38.645Z,51.70
2018-03-20T02:59:21.853Z,51.70
2018-03-20T03:01:05.303Z,51.70
2018-03-20T03:02:48.484Z,51.30
2018-03-20T03:04:31.641Z,51.20
2018-03-20T03:06:15.588Z,50.90
2018-03-20T03:07:58.712Z,50.90
2018-03-20T03:09:44.554Z,50.80
2018-03-20T03:11:31.797Z,50.70
2018-03-20T03:13:18.518Z,50.60
2018-03-20T03:15:01.780Z,50.60
2018-03-20T03:16:44.968Z,50.50
2018-03-20T03:18:28.090Z,50.50
2018-03-20T03:20:11.544Z,50.40
2018-03-20T03:21:54.776Z,50.40
2018-03-20T03:23:38.681Z,50.50
2018-03-20T03:25:21.929Z,50.50
2018-03-20T03:27:05.820Z,50.60
2018-03-20T03:28:48.968Z,50.60
2018-03-20T03:30:32.181Z,50.60
2018-03-20T03:32:15.514Z,50.70
2018-03-20T03:33:59.423Z,51.10
2018-03-20T03:35:42.552Z,50.60
2018-03-20T03:37:25.676Z,50.70
2018-03-20T03:39:09.622Z,50.70
2018-03-20T03:40:53.578Z,50.90
2018-03-20T03:42:36.705Z,50.80
2018-03-20T03:44:19.882Z,50.90
2018-03-20T03:46:03.033Z,51.00
2018-03-20T03:47:46.177Z,51.30
2018-03-20T03:49:29.346Z,51.10
2018-03-20T03:51:13.356Z,50.90
2018-03-20T03:52:56.469Z,50.90
2018-03-20T03:54:39.587Z,50.80
2018-03-20T03:56:23.142Z,50.80
2018-03-20T03:58:07.036Z,51.00
2018-03-20T03:59:50.152Z,51.00
2018-03-20T04:01:33.307Z,51.10
2018-03-20T04:03:17.225Z,51.00
2018-03-20T04:05:00.444Z,51.00
2018-03-20T04:06:43.652Z,50.90
2018-03-20T04:08:26.798Z,50.90
2018-03-20T04:10:10.726Z,50.80
2018-03-20T04:11:53.877Z,50.70
2018-03-20T04:13:36.991Z,50.80
2018-03-20T04:15:20.108Z,50.80
2018-03-20T04:17:03.283Z,50.80
2018-03-20T04:18:46.425Z,50.70
2018-03-20T04:20:30.452Z,50.80
2018-03-20T04:22:14.372Z,50.90
2018-03-20T04:23:57.589Z,50.80
2018-03-20T04:25:40.710Z,50.90
2018-03-20T04:27:23.924Z,50.90
2018-03-20T04:29:07.044Z,51.00
2018-03-20T04:30:50.256Z,51.20
2018-03-20T04:32:33.591Z,51.40
2018-03-20T04:34:17.074Z,51.40
2018-03-20T04:36:00.269Z,51.40
2018-03-20T04:37:43.416Z,51.30
2018-03-20T04:39:26.566Z,51.30
2018-03-20T04:41:09.685Z,51.30
2018-03-20T04:42:52.828Z,51.40
2018-03-20T04:44:36.026Z,51.30
2018-03-20T04:46:19.920Z,51.20
2018-03-20T04:48:03.075Z,51.20
2018-03-20T04:49:46.989Z,51.10
2018-03-20T04:51:30.188Z,51.10
2018-03-20T04:53:13.312Z,51.10
2018-03-20T04:54:56.435Z,51.10
2018-03-20T04:56:39.558Z,51.10
2018-03-20T04:58:22.693Z,51.10
2018-03-20T05:00:05.921Z,51.10
2018-03-20T05:01:49.813Z,51.00
2018-03-20T05:03:33.040Z,51.00
2018-03-20T05:05:16.172Z,50.90
2018-03-20T05:06:59.385Z,50.90
2018-03-20T05:08:42.529Z,50.90
2018-03-20T05:10:26.413Z,50.80
2018-03-20T05:12:09.591Z,50.80
2018-03-20T05:13:52.841Z,50.70
2018-03-20T05:15:35.990Z,50.50
2018-03-20T05:17:19.102Z,50.40
2018-03-20T05:21:35.294Z,50.00
2018-03-20T05:23:24.132Z,49.80
2018-03-20T05:25:07.293Z,49.50
2018-03-20T05:26:51.187Z,48.90
2018-03-20T05:28:34.337Z,48.90
2018-03-20T05:30:17.458Z,48.60
2018-03-20T05:32:00.618Z,48.40
2018-03-20T05:33:43.792Z,48.20
2018-03-20T05:35:26.916Z,48.00
2018-03-20T05:37:10.815Z,48.10
2018-03-20T05:38:53.956Z,48.00
2018-03-20T05:40:37.084Z,48.00
2018-03-20T05:42:20.971Z,47.80
2018-03-20T05:44:04.116Z,47.80
2018-03-20T05:45:47.242Z,47.70
2018-03-20T05:47:35.903Z,47.80
2018-03-20T05:51:42.469Z,47.20
2018-03-20T05:53:26.383Z,46.80
2018-03-20T05:55:10.146Z,46.80
2018-03-20T05:56:54.037Z,46.40
2018-03-20T05:58:37.221Z,46.40
2018-03-20T06:00:20.316Z,46.00
2018-03-20T06:02:04.229Z,44.80
2018-03-20T06:03:48.160Z,44.40
2018-03-20T06:05:31.298Z,44.40
2018-03-20T06:07:15.226Z,44.60
2018-03-20T06:08:58.396Z,44.60
2018-03-20T06:10:41.563Z,44.30
2018-03-20T06:12:24.679Z,44.00
2018-03-20T06:14:07.896Z,43.90
2018-03-20T06:15:51.804Z,43.90
2018-03-20T06:17:34.946Z,43.80
2018-03-20T06:19:18.100Z,43.90
2018-03-20T06:21:01.236Z,44.50
2018-03-20T06:22:44.429Z,43.70
2018-03-20T06:24:27.618Z,43.40
2018-03-20T06:26:10.750Z,43.20
2018-03-20T06:27:54.666Z,43.10
2018-03-20T06:29:37.897Z,43.00
2018-03-20T06:31:21.792Z,42.90
2018-03-20T06:33:05.047Z,42.90
2018-03-20T06:34:48.994Z,42.60
2018-03-20T06:36:33.023Z,42.60
2018-03-20T06:38:17.005Z,42.60
2018-03-20T06:40:00.140Z,42.60
2018-03-20T06:41:43.257Z,42.60
2018-03-20T06:43:26.377Z,42.60
2018-03-20T06:45:09.518Z,42.70
2018-03-20T06:46:52.643Z,42.80
2018-03-20T06:48:36.546Z,42.70
2018-03-20T06:50:19.704Z,42.70
2018-03-20T06:52:03.580Z,42.60
2018-03-20T06:53:46.684Z,42.50
2018-03-20T06:55:29.815Z,42.30
2018-03-20T06:57:12.933Z,41.90
2018-03-20T06:58:56.068Z,41.10
2018-03-20T07:00:39.294Z,40.30
2018-03-20T07:02:23.221Z,38.70
2018-03-20T07:04:06.339Z,38.70
2018-03-20T07:05:49.473Z,37.60
2018-03-20T07:07:32.680Z,37.40
2018-03-20T07:09:15.771Z,36.80
2018-03-20T07:10:59.024Z,36.30
2018-03-20T07:12:42.976Z,35.60
2018-03-20T07:14:26.860Z,35.40
2018-03-20T07:16:09.976Z,35.40
2018-03-20T07:17:53.137Z,35.30
2018-03-20T07:19:37.029Z,35.10
2018-03-20T07:21:20.143Z,35.00
2018-03-20T07:23:03.282Z,34.90
2018-03-20T07:24:46.383Z,35.10
2018-03-20T07:26:29.623Z,35.20
2018-03-20T07:28:12.825Z,35.10
2018-03-20T07:29:55.953Z,34.90
2018-03-20T07:31:39.095Z,34.50
2018-03-20T07:33:22.303Z,34.10
2018-03-20T07:35:06.242Z,34.00
2018-03-20T07:36:50.149Z,33.70
2018-03-20T07:38:33.269Z,34.40
2018-03-20T07:40:16.501Z,33.80
2018-03-20T07:42:00.408Z,33.90
2018-03-20T07:43:43.531Z,33.80
2018-03-20T07:45:26.658Z,33.90
2018-03-20T07:47:10.589Z,34.50
2018-03-20T07:48:53.798Z,34.40
2018-03-20T07:50:36.901Z,34.70
2018-03-20T07:52:20.060Z,35.90
2018-03-20T07:54:03.950Z,36.40
2018-03-20T07:55:47.074Z,36.30
2018-03-20T07:57:30.230Z,37.30
2018-03-20T07:59:14.120Z,38.80
2018-03-20T08:00:57.220Z,38.60
2018-03-20T08:02:40.340Z,39.00
2018-03-20T08:04:23.445Z,39.00
2018-03-20T08:06:06.733Z,39.20
2018-03-20T08:07:50.668Z,40.00
2018-03-20T08:09:34.613Z,40.40
2018-03-20T08:11:18.776Z,40.80
2018-03-20T08:13:02.042Z,40.80
2018-03-20T08:14:45.188Z,40.90
2018-03-20T08:16:29.094Z,40.70
2018-03-20T08:18:12.311Z,40.70
2018-03-20T08:19:55.550Z,40.40
2018-03-20T08:21:40.180Z,40.70
2018-03-20T08:23:23.284Z,40.60
2018-03-20T08:25:06.447Z,40.80
2018-03-20T08:26:50.350Z,40.60
2018-03-20T08:28:33.582Z,40.60
2018-03-20T08:30:17.525Z,41.00
2018-03-20T08:32:00.737Z,41.00
2018-03-20T08:33:44.670Z,41.20
2018-03-20T08:35:27.776Z,41.20
2018-03-20T08:37:10.893Z,41.60
2018-03-20T08:38:54.010Z,42.30
2018-03-20T08:40:38.041Z,42.70
2018-03-20T08:42:21.205Z,43.40
2018-03-20T08:44:04.334Z,44.00
2018-03-20T08:45:47.455Z,44.40
2018-03-20T08:47:30.634Z,44.80
2018-03-20T08:49:13.762Z,44.80
2018-03-20T08:50:57.639Z,45.40
2018-03-20T08:52:40.784Z,45.40
2018-03-20T08:54:23.948Z,45.40
2018-03-20T08:56:07.145Z,46.40
2018-03-20T08:57:51.080Z,46.50
2018-03-20T08:59:34.957Z,46.40
2018-03-20T09:01:18.198Z,46.30
2018-03-20T09:03:01.358Z,46.60
2018-03-20T09:04:44.483Z,46.60
2018-03-20T09:06:27.661Z,46.70
2018-03-20T09:08:11.614Z,48.20
2018-03-20T09:09:55.494Z,48.20
2018-03-20T09:11:38.624Z,47.50
2018-03-20T09:13:21.745Z,47.70
2018-03-20T09:15:04.871Z,48.10
2018-03-20T09:16:47.985Z,48.20
2018-03-20T09:18:31.185Z,48.00
2018-03-20T09:20:14.326Z,48.00
2018-03-20T09:21:57.552Z,48.10
2018-03-20T09:23:40.785Z,48.70
2018-03-20T09:25:24.681Z,49.10
2018-03-20T09:27:07.792Z,49.10
2018-03-20T09:28:50.932Z,49.20
2018-03-20T09:30:34.033Z,49.60
2018-03-20T09:32:17.175Z,49.90
2018-03-20T09:34:01.086Z,50.20
2018-03-20T09:35:44.212Z,50.10
2018-03-20T09:37:27.440Z,50.10
2018-03-20T09:39:10.638Z,50.20
2018-03-20T09:40:53.765Z,49.90
2018-03-20T09:42:36.898Z,49.40
2018-03-20T09:44:20.032Z,49.60
2018-03-20T09:46:03.944Z,49.70
2018-03-20T09:47:47.069Z,49.70
2018-03-20T09:49:30.241Z,49.80
2018-03-20T09:51:13.373Z,50.10
2018-03-20T09:52:58.999Z,49.40
2018-03-20T09:54:42.912Z,49.20
2018-03-20T09:56:26.121Z,49.20
2018-03-20T09:58:09.252Z,48.90
2018-03-20T09:59:53.122Z,47.70
2018-03-20T10:01:36.246Z,47.70
2018-03-20T10:03:19.418Z,47.20
2018-03-20T10:05:03.300Z,46.20
2018-03-20T10:06:46.409Z,46.20
2018-03-20T10:08:29.573Z,46.70
2018-03-20T10:10:12.682Z,46.30
2018-03-20T10:11:55.815Z,46.10
2018-03-20T10:13:38.943Z,46.00
2018-03-20T10:15:22.815Z,46.80
2018-03-20T10:17:05.924Z,46.80
2018-03-20T10:18:49.050Z,47.00
2018-03-20T10:20:32.168Z,47.00
2018-03-20T10:22:15.322Z,46.80
2018-03-20T10:23:58.526Z,47.60
2018-03-20T10:25:41.637Z,47.00
2018-03-20T10:27:24.769Z,47.10
2018-03-20T10:29:07.941Z,47.20
2018-03-20T10:30:51.075Z,47.30
2018-03-20T10:32:34.229Z,47.20
2018-03-20T10:34:17.453Z,47.40
2018-03-20T10:36:00.680Z,47.60
2018-03-20T10:37:44.594Z,47.80
2018-03-20T10:39:28.523Z,48.60
2018-03-20T10:41:11.653Z,47.80
2018-03-20T10:42:54.980Z,48.10
2018-03-20T10:44:38.867Z,48.40
2018-03-20T10:46:21.982Z,48.30
2018-03-20T10:48:05.125Z,48.60
2018-03-20T10:49:48.269Z,48.80
2018-03-20T10:51:32.159Z,49.60
2018-03-20T10:53:15.276Z,49.60
2018-03-20T10:54:58.416Z,49.90
2018-03-20T10:56:41.531Z,50.40
2018-03-20T10:58:24.638Z,50.70
2018-03-20T11:00:07.785Z,50.90
2018-03-20T11:01:51.657Z,51.10
2018-03-20T11:03:34.770Z,51.10
2018-03-20T11:05:17.916Z,51.20
2018-03-20T11:07:01.037Z,51.30
2018-03-20T11:08:44.163Z,51.30
2018-03-20T11:10:27.435Z,51.40
2018-03-20T11:12:10.531Z,51.40
2018-03-20T11:13:54.415Z,51.80
2018-03-20T11:15:37.658Z,51.80
2018-03-20T11:17:20.864Z,52.50
2018-03-20T11:19:04.003Z,51.80
2018-03-20T11:20:47.118Z,51.80
2018-03-20T11:22:30.248Z,51.80
2018-03-20T11:24:14.128Z,52.20
2018-03-20T11:25:57.265Z,52.20
2018-03-20T11:27:40.380Z,52.00
2018-03-20T11:29:23.518Z,52.20
2018-03-20T11:31:07.419Z,52.40
2018-03-20T11:32:50.549Z,52.30
2018-03-20T11:34:33.750Z,52.40
2018-03-20T11:36:16.880Z,52.50
2018-03-20T11:37:59.995Z,52.80
2018-03-20T11:39:43.131Z,53.00
2018-03-20T11:41:26.273Z,53.20
2018-03-20T11:43:10.181Z,52.90
2018-03-20T11:44:53.321Z,52.90
2018-03-20T11:46:37.247Z,52.40
2018-03-20T11:48:21.157Z,52.40
2018-03-20T11:50:04.325Z,52.30
2018-03-20T11:51:47.453Z,52.30
2018-03-20T11:53:30.561Z,52.20
2018-03-20T11:55:13.731Z,52.10
2018-03-20T11:56:56.843Z,51.90
2018-03-20T11:58:40.091Z,51.60
2018-03-20T12:00:23.993Z,50.80
2018-03-20T12:02:07.125Z,50.70
2018-03-20T12:03:51.037Z,50.50
2018-03-20T12:05:34.155Z,50.50
2018-03-20T12:07:17.297Z,50.60
2018-03-20T12:11:24.520Z,50.60
2018-03-20T12:13:07.700Z,50.80
2018-03-20T12:14:50.798Z,50.90
2018-03-20T12:16:33.921Z,51.10
2018-03-20T12:18:17.052Z,51.10
2018-03-20T12:20:00.256Z,51.10
2018-03-20T12:21:43.389Z,51.10
2018-03-20T12:23:26.512Z,51.10
2018-03-20T12:25:10.451Z,51.20
2018-03-20T12:26:54.351Z,51.20
2018-03-20T12:28:37.466Z,51.10
2018-03-20T12:30:20.676Z,51.10
2018-03-20T12:32:03.817Z,51.00
2018-03-20T12:33:46.991Z,50.70
2018-03-20T12:35:30.166Z,50.60
2018-03-20T12:37:14.063Z,50.60
2018-03-20T12:38:57.197Z,50.20
2018-03-20T12:40:41.096Z,49.30
2018-03-20T12:42:24.261Z,49.60
2018-03-20T12:44:08.920Z,49.60
2018-03-20T12:45:52.046Z,49.60
2018-03-20T12:47:35.932Z,49.30
2018-03-20T12:49:19.087Z,49.20
2018-03-20T12:51:02.228Z,48.80
2018-03-20T12:52:45.342Z,48.60
2018-03-20T12:54:28.477Z,48.70
2018-03-20T12:56:11.664Z,47.20
2018-03-20T12:57:55.541Z,45.30
2018-03-20T12:59:38.660Z,45.20
2018-03-20T13:01:21.809Z,44.10
2018-03-20T13:03:04.960Z,43.00
2018-03-20T13:04:48.932Z,41.20
2018-03-20T13:06:32.091Z,41.20
2018-03-20T13:08:15.990Z,41.50
2018-03-20T13:09:59.103Z,41.50
2018-03-20T13:11:42.242Z,41.70
2018-03-20T13:13:25.377Z,42.30
2018-03-20T13:15:08.521Z,41.50
2018-03-20T13:16:51.681Z,41.60
2018-03-20T13:18:34.785Z,41.60
2018-03-20T13:20:17.925Z,42.00
2018-03-20T13:22:01.059Z,41.80
2018-03-20T13:23:44.207Z,42.40
2018-03-20T13:25:27.384Z,42.80
2018-03-20T13:27:10.617Z,43.40
2018-03-20T13:28:54.521Z,44.40
2018-03-20T13:30:37.638Z,44.40
2018-03-20T13:32:20.866Z,44.40
2018-03-20T13:34:04.768Z,45.40
2018-03-20T13:35:47.888Z,45.00
2018-03-20T13:37:31.041Z,45.50
2018-03-20T13:39:14.625Z,46.00
2018-03-20T13:40:57.900Z,46.20
2018-03-20T13:42:41.804Z,47.10
2018-03-20T13:44:24.974Z,46.90
2018-03-20T13:46:08.161Z,47.20
2018-03-20T13:47:52.045Z,47.20
2018-03-20T13:49:37.152Z,47.20
2018-03-20T13:51:22.500Z,47.20
2018-03-20T13:53:08.543Z,47.70
2018-03-20T13:54:51.912Z,47.70
2018-03-20T13:56:37.611Z,47.90
2018-03-20T13:58:22.705Z,48.20
2018-03-20T14:00:07.852Z,48.30
2018-03-20T14:01:51.138Z,48.30
2018-03-20T14:03:35.620Z,48.30
2018-03-20T14:05:20.545Z,48.20
2018-03-20T14:07:06.165Z,48.30
2018-03-20T14:08:51.078Z,48.30
2018-03-20T14:10:38.968Z,48.60
2018-03-20T14:12:22.255Z,48.50
2018-03-20T14:14:06.140Z,48.70
2018-03-20T14:15:49.307Z,48.70
2018-03-20T14:17:34.988Z,49.20
2018-03-20T14:19:19.910Z,48.80
2018-03-20T14:21:04.948Z,48.90
2018-03-20T14:22:51.046Z,49.30
2018-03-20T14:24:36.192Z,49.30
2018-03-20T14:26:21.120Z,49.30
2018-03-20T14:28:06.309Z,50.00
2018-03-20T14:29:51.019Z,49.50
2018-03-20T14:31:36.080Z,49.80
2018-03-20T14:33:21.788Z,49.80
2018-03-20T14:35:06.816Z,49.80
2018-03-20T14:36:51.840Z,49.60
2018-03-20T14:38:36.950Z,50.50
2018-03-20T14:40:20.289Z,51.00
2018-03-20T14:42:04.314Z,51.50
2018-03-20T14:43:48.196Z,51.80
2018-03-20T14:45:31.366Z,51.80
2018-03-20T14:47:15.295Z,51.90
2018-03-20T14:48:58.502Z,51.90
2018-03-20T14:50:41.631Z,51.70
2018-03-20T14:52:25.523Z,51.60
2018-03-20T14:54:08.684Z,51.50
2018-03-20T14:55:52.636Z,51.20
2018-03-20T14:57:35.726Z,51.20
2018-03-20T14:59:18.940Z,50.90
2018-03-20T15:01:02.171Z,50.90
2018-03-20T15:02:46.047Z,51.10
2018-03-20T15:04:29.189Z,50.70
2018-03-20T15:06:12.381Z,50.50
2018-03-20T15:07:55.538Z,50.30
2018-03-20T15:09:38.698Z,50.20
2018-03-20T15:11:21.828Z,50.10
2018-03-20T15:13:05.012Z,50.10
2018-03-20T15:14:48.884Z,50.20
2018-03-20T15:16:32.045Z,50.10
2018-03-20T15:18:15.286Z,50.30
2018-03-20T15:19:59.212Z,50.60
2018-03-20T15:21:42.491Z,50.50
2018-03-20T15:23:25.648Z,50.50
2018-03-20T15:25:09.684Z,49.80
2018-03-20T15:26:52.807Z,50.20
2018-03-20T15:28:36.737Z,50.90
2018-03-20T15:30:20.776Z,50.30
2018-03-20T15:32:04.003Z,50.30
2018-03-20T15:33:47.174Z,50.30
2018-03-20T15:35:30.350Z,50.40
2018-03-20T15:37:13.522Z,50.60
2018-03-20T15:38:56.665Z,50.90
2018-03-20T15:40:40.586Z,51.90
2018-03-20T15:42:23.702Z,51.40
2018-03-20T15:44:06.831Z,51.50
2018-03-20T15:45:50.790Z,51.10
2018-03-20T15:47:34.692Z,51.30
2018-03-20T15:49:17.822Z,51.30
2018-03-20T15:51:01.709Z,51.30
2018-03-20T15:52:44.842Z,51.30
2018-03-20T15:54:27.994Z,51.20
2018-03-20T15:56:11.897Z,51.10
2018-03-20T15:57:55.090Z,51.10
2018-03-20T15:59:38.361Z,50.90
2018-03-20T16:01:22.249Z,49.50
2018-03-20T16:03:05.400Z,49.30
2018-03-20T16:04:48.560Z,49.30
2018-03-20T16:06:31.736Z,49.10
2018-03-20T16:08:14.838Z,47.80
2018-03-20T16:09:58.066Z,46.90
2018-03-20T16:11:41.285Z,46.20
2018-03-20T16:13:24.421Z,46.00
2018-03-20T16:15:08.309Z,45.40
2018-03-20T16:16:51.501Z,45.40
2018-03-20T16:18:34.687Z,45.30
2018-03-20T16:20:18.716Z,45.10
2018-03-20T16:22:03.385Z,45.50
2018-03-20T16:23:47.257Z,45.60
2018-03-20T16:25:30.398Z,45.60
2018-03-20T16:27:13.510Z,45.80
2018-03-20T16:28:56.632Z,45.80
2018-03-20T16:30:39.789Z,45.90
2018-03-20T16:32:23.695Z,45.70
2018-03-20T16:34:06.833Z,45.70
2018-03-20T16:35:50.784Z,46.10
2018-03-20T16:37:33.922Z,46.00
2018-03-20T16:39:17.032Z,46.00
2018-03-20T16:41:01.062Z,46.30
2018-03-20T16:42:44.245Z,46.50
2018-03-20T16:44:27.382Z,46.90
2018-03-20T16:46:11.280Z,48.10
2018-03-20T16:47:54.565Z,48.00
2018-03-20T16:49:37.686Z,47.90
2018-03-20T16:51:20.801Z,48.10
2018-03-20T16:53:03.971Z,48.50
2018-03-20T16:54:47.368Z,48.80
2018-03-20T16:56:30.500Z,49.90
2018-03-20T16:58:13.602Z,49.50
2018-03-20T16:59:56.756Z,49.80
2018-03-20T17:01:40.677Z,50.20
2018-03-20T17:03:23.899Z,50.20
2018-03-20T17:05:07.019Z,50.40
2018-03-20T17:06:50.961Z,50.70
2018-03-20T17:08:34.851Z,50.80
2018-03-20T17:10:18.175Z,50.80
2018-03-20T17:12:01.281Z,50.90
2018-03-20T17:13:44.407Z,51.00
2018-03-20T17:15:28.414Z,51.00
2018-03-20T17:17:11.537Z,51.00
2018-03-20T17:18:54.708Z,51.00
2018-03-20T17:20:38.654Z,51.90
2018-03-20T17:22:22.538Z,51.30
2018-03-20T17:24:05.648Z,51.20
2018-03-20T17:25:48.771Z,51.30
2018-03-20T17:27:31.898Z,51.60
2018-03-20T17:29:15.360Z,51.60
2018-03-20T17:30:59.263Z,52.20
2018-03-20T17:32:42.503Z,51.50
2018-03-20T17:34:25.708Z,51.50
2018-03-20T17:36:08.842Z,51.80
2018-03-20T17:37:52.722Z,52.10
2018-03-20T17:39:35.870Z,51.90
2018-03-20T17:41:19.103Z,51.90
2018-03-20T17:43:02.286Z,52.00
2018-03-20T17:44:45.401Z,52.20
2018-03-20T17:46:28.591Z,52.30
2018-03-20T17:48:12.505Z,52.60
2018-03-20T17:49:56.736Z,52.60
2018-03-20T17:51:39.895Z,52.50
2018-03-20T17:53:23.053Z,52.70
2018-03-20T17:55:06.194Z,52.70
2018-03-20T17:56:50.087Z,53.00
2018-03-20T17:58:33.241Z,53.00
2018-03-20T18:00:16.354Z,53.00
2018-03-20T18:01:59.493Z,53.10
2018-03-20T18:03:43.408Z,53.50
2018-03-20T18:05:26.567Z,53.50
2018-03-20T18:07:09.677Z,53.50
2018-03-20T18:08:52.799Z,53.60
2018-03-20T18:10:35.932Z,53.70
2018-03-20T18:12:19.067Z,53.90
2018-03-20T18:14:02.198Z,54.10
2018-03-20T18:15:45.309Z,54.20
2018-03-20T18:17:29.232Z,54.50
2018-03-20T18:19:13.403Z,54.40
2018-03-20T18:20:57.309Z,54.70
2018-03-20T18:22:40.485Z,54.60
2018-03-20T18:24:25.405Z,54.80
2018-03-20T18:26:08.944Z,54.90
2018-03-20T18:27:53.246Z,55.20
2018-03-20T18:29:38.686Z,55.10
2018-03-20T18:31:23.302Z,55.70
2018-03-20T18:33:07.052Z,55.60
2018-03-20T18:34:51.480Z,55.60
2018-03-20T18:36:36.957Z,55.60
2018-03-20T18:38:22.756Z,55.60
2018-03-20T18:40:06.768Z,55.60
2018-03-20T18:41:52.837Z,55.60
2018-03-20T18:43:38.691Z,55.60
2018-03-20T18:45:23.664Z,55.60
2018-03-20T18:47:09.667Z,55.60
2018-03-20T18:48:55.613Z,55.50
2018-03-20T18:50:40.343Z,55.60
2018-03-20T18:52:24.321Z,56.00
2018-03-20T18:54:07.777Z,56.00
2018-03-20T18:55:51.670Z,56.30
2018-03-20T18:57:34.786Z,56.30
2018-03-20T18:59:18.349Z,56.40
2018-03-20T19:01:02.244Z,56.70
2018-03-20T19:02:45.372Z,56.60
2018-03-20T19:04:28.516Z,56.70
2018-03-20T19:06:11.639Z,56.70
2018-03-20T19:07:55.517Z,56.90
2018-03-20T19:09:38.668Z,56.90
2018-03-20T19:11:21.795Z,56.90
2018-03-20T19:13:05.104Z,57.00
2018-03-20T19:14:48.265Z,57.20
2018-03-20T19:16:31.456Z,57.90
2018-03-20T19:18:14.566Z,57.40
2018-03-20T19:19:57.693Z,57.50
2018-03-20T19:21:41.556Z,57.60
2018-03-20T19:23:24.680Z,57.60
2018-03-20T19:25:07.789Z,57.70
2018-03-20T19:26:50.907Z,57.80
2018-03-20T19:28:34.065Z,57.90
2018-03-20T19:30:17.309Z,58.00
2018-03-20T19:32:01.245Z,58.10
2018-03-20T19:33:45.154Z,58.90
2018-03-20T19:35:28.309Z,58.10
2018-03-20T19:37:12.217Z,58.40
2018-03-20T19:38:55.366Z,58.40
2018-03-20T19:40:39.270Z,58.60
2018-03-20T19:42:22.501Z,58.60
2018-03-20T19:44:06.421Z,58.70
2018-03-20T19:45:49.627Z,58.60
2018-03-20T19:47:32.763Z,58.50
2018-03-20T19:49:15.874Z,58.60
2018-03-20T19:50:59.035Z,58.70
2018-03-20T19:52:42.163Z,58.80
2018-03-20T19:54:25.359Z,58.80
2018-03-20T19:56:08.549Z,58.80
2018-03-20T19:57:51.709Z,58.80
2018-03-20T19:59:34.844Z,58.50
2018-03-20T20:01:17.999Z,58.90
2018-03-20T20:03:01.126Z,59.10
2018-03-20T20:04:45.050Z,59.40
2018-03-20T20:06:28.211Z,59.40
2018-03-20T20:08:11.391Z,59.40
2018-03-20T20:09:54.603Z,59.40
2018-03-20T20:11:37.739Z,60.30
2018-03-20T20:13:21.689Z,59.70
2018-03-20T20:15:05.702Z,59.70
2018-03-20T20:16:49.600Z,59.70
2018-03-20T20:18:32.750Z,59.70
2018-03-20T20:20:15.924Z,59.70
2018-03-20T20:21:59.819Z,60.00
2018-03-20T20:23:43.723Z,60.10
2018-03-20T20:25:26.943Z,60.00
2018-03-20T20:27:10.071Z,60.10
2018-03-20T20:28:53.197Z,60.30
2018-03-20T20:30:37.113Z,60.30
2018-03-20T20:32:21.044Z,60.40
2018-03-20T20:34:04.298Z,60.30
2018-03-20T20:35:48.202Z,60.40
2018-03-20T20:37:31.445Z,60.40
2018-03-20T20:39:15.341Z,60.60
2018-03-20T20:40:58.693Z,60.50
2018-03-20T20:42:42.619Z,60.70
2018-03-20T20:44:26.540Z,60.10
2018-03-20T20:46:09.699Z,60.70
2018-03-20T20:47:53.587Z,61.00
2018-03-20T20:49:36.726Z,60.90
2018-03-20T20:51:20.087Z,61.20
2018-03-20T20:53:03.220Z,61.30
2018-03-20T20:54:46.350Z,61.20
2018-03-20T20:56:29.594Z,61.20
2018-03-20T20:58:12.833Z,61.30
2018-03-20T20:59:56.744Z,61.50
2018-03-20T21:01:40.194Z,61.50
2018-03-20T21:03:24.094Z,61.80
2018-03-20T21:05:07.249Z,61.70
2018-03-20T21:06:51.173Z,62.00
2018-03-20T21:08:35.113Z,62.10
2018-03-20T21:10:19.020Z,62.00
2018-03-20T21:12:02.443Z,62.00
2018-03-20T21:13:45.576Z,62.00
2018-03-20T21:15:28.784Z,62.10
2018-03-20T21:17:12.216Z,62.30
2018-03-20T21:18:55.341Z,62.50
2018-03-20T21:20:38.546Z,63.40
2018-03-20T21:22:21.677Z,62.50
2018-03-20T21:24:05.627Z,62.70
2018-03-20T21:25:48.812Z,62.70
2018-03-20T21:27:32.176Z,62.80
2018-03-20T21:29:15.310Z,62.90
2018-03-20T21:30:58.473Z,62.90
2018-03-20T21:32:41.623Z,63.00
2018-03-20T21:34:24.732Z,63.00
2018-03-20T21:36:07.865Z,63.00
2018-03-20T21:37:51.022Z,63.10
2018-03-20T21:39:34.262Z,63.20
2018-03-20T21:41:17.380Z,63.40
2018-03-20T21:43:00.503Z,63.30
2018-03-20T21:44:44.475Z,63.20
2018-03-20T21:46:27.640Z,63.20
2018-03-20T21:48:10.849Z,63.30
2018-03-20T21:49:53.980Z,63.30
2018-03-20T21:51:37.130Z,63.40
2018-03-20T21:53:20.263Z,63.40
2018-03-20T21:55:03.427Z,63.40
2018-03-20T21:56:46.542Z,63.50
2018-03-20T21:58:29.745Z,63.50
2018-03-20T22:00:12.904Z,63.60
2018-03-20T22:01:56.037Z,63.50
2018-03-20T22:03:39.176Z,63.60
2018-03-20T22:05:22.315Z,63.50
2018-03-20T22:07:05.433Z,63.60
2018-03-20T22:08:48.729Z,63.70
2018-03-20T22:10:31.843Z,63.70
2018-03-20T22:12:14.971Z,63.70
2018-03-20T22:13:58.147Z,63.70
2018-03-20T22:15:41.445Z,63.80
2018-03-20T22:17:25.388Z,63.80
2018-03-20T22:19:09.413Z,63.70